Time;durP1;ratioP1;P1;durP2;ratioP2;P2;SDS_P1;SDS_P2;PMS_P1;PMS_P2;Temp;Humidity;BMP_temperature;BMP_pressure;BME280_temperature;BME280_humidity;BME280_pressure;Samples;Min_cycle;Max_cycle;Signal;HPM_P1;HPM_P2
2023/04/04 00:00:37;;;;;;;5.53;3.95;;;;;;;;;;6334950;22;20029;-81
2023/04/04 00:03:03;;;;;;;8.65;4.03;;;;;;;;;;6362281;22;20197;-81
2023/04/04 00:05:29;;;;;;;5.95;4.45;;;;;;;;;;6358326;22;19999;-81
2023/04/04 00:07:55;;;;;;;6.95;4.18;;;;;;;;;;6355638;22;20018;-81
2023/04/04 00:10:21;;;;;;;9.70;4.95;;;;;;;;;;6328334;22;20029;-81
2023/04/04 00:12:47;;;;;;;6.32;4.15;;;;;;;;;;6328317;22;20007;-80
2023/04/04 00:15:13;;;;;;;10.15;4.68;;;;;;;;;;6333121;22;20002;-80
2023/04/04 00:17:40;;;;;;;8.35;4.32;;;;;;;;;;6330567;22;20006;-80
2023/04/04 00:20:08;;;;;;;6.55;4.22;;;;;;;;;;6357443;22;20465;-80
2023/04/04 00:22:34;;;;;;;9.43;4.45;;;;;;;;;;6354743;22;20018;-80
2023/04/04 00:25:00;;;;;;;5.38;4.38;;;;;;;;;;6326616;22;19995;-80
2023/04/04 00:27:26;;;;;;;11.45;5.00;;;;;;;;;;6355061;22;20321;-80
2023/04/04 00:29:53;;;;;;;6.60;3.60;;;;;;;;;;6355664;22;20003;-80
2023/04/04 00:32:19;;;;;;;7.85;4.43;;;;;;;;;;6355090;22;20003;-80
2023/04/04 00:34:45;;;;;;;9.73;4.57;;;;;;;;;;6327876;22;20006;-81
2023/04/04 00:37:11;;;;;;;11.77;4.97;;;;;;;;;;6354464;22;20002;-80
2023/04/04 00:39:38;;;;;;;9.98;3.95;;;;;;;;;;6353823;22;19999;-80
2023/04/04 00:42:05;;;;;;;8.50;4.50;;;;;;;;;;6325815;22;20086;-81
2023/04/04 00:44:31;;;;;;;8.13;4.40;;;;;;;;;;6325974;22;19999;-80
2023/04/04 00:46:58;;;;;;;6.18;4.28;;;;;;;;;;6325480;22;20025;-80
2023/04/04 00:49:24;;;;;;;8.65;4.22;;;;;;;;;;6327854;22;20010;-81
2023/04/04 00:51:51;;;;;;;7.63;4.60;;;;;;;;;;6354877;22;20006;-79
2023/04/04 00:54:17;;;;;;;13.65;6.70;;;;;;;;;;6326634;22;20030;-81
2023/04/04 00:56:44;;;;;;;10.82;5.30;;;;;;;;;;6328230;22;20003;-81
2023/04/04 00:59:10;;;;;;;5.30;3.83;;;;;;;;;;6354881;22;20002;-81
2023/04/04 01:01:36;;;;;;;11.38;4.18;;;;;;;;;;6327003;22;20011;-80
2023/04/04 01:04:02;;;;;;;5.03;3.80;;;;;;;;;;6353370;22;20003;-80
2023/04/04 01:06:31;;;;;;;7.78;3.78;;;;;;;;;;6353903;22;20026;-79
2023/04/04 01:08:57;;;;;;;5.60;3.70;;;;;;;;;;6326522;22;20024;-80
2023/04/04 01:11:24;;;;;;;8.98;4.20;;;;;;;;;;6327293;22;20002;-80
2023/04/04 01:13:50;;;;;;;10.98;3.92;;;;;;;;;;6327590;22;20007;-81
2023/04/04 01:16:16;;;;;;;6.93;3.90;;;;;;;;;;6356572;22;20003;-80
2023/04/04 01:18:43;;;;;;;9.63;3.88;;;;;;;;;;6325997;22;20007;-80
2023/04/04 01:21:15;;;;;;;5.63;3.45;;;;;;;;;;6330584;22;20011;-80
2023/04/04 01:23:59;;;;;;;8.13;4.22;;;;;;;;;;6331531;22;19999;-82
2023/04/04 01:26:28;;;;;;;7.20;3.88;;;;;;;;;;6354454;22;19995;-80
2023/04/04 01:28:54;;;;;;;5.45;3.53;;;;;;;;;;6353757;22;19995;-79
2023/04/04 01:31:27;;;;;;;5.10;3.63;;;;;;;;;;6353117;22;19999;-78
2023/04/04 01:34:13;;;;;;;7.88;3.60;;;;;;;;;;6323794;22;20034;-79
2023/04/04 01:36:54;;;;;;;4.38;3.00;;;;;;;;;;6325861;22;20022;-80
2023/04/04 01:39:31;;;;;;;5.43;3.45;;;;;;;;;;6325905;22;20026;-79
2023/04/04 01:41:58;;;;;;;6.95;3.15;;;;;;;;;;6352570;22;20013;-79
2023/04/04 01:44:25;;;;;;;10.88;3.90;;;;;;;;;;6326358;22;20062;-79
2023/04/04 01:46:54;;;;;;;6.05;3.33;;;;;;;;;;6352639;22;19999;-80
2023/04/04 01:49:22;;;;;;;9.85;4.07;;;;;;;;;;6354501;22;19995;-81
2023/04/04 01:51:48;;;;;;;6.63;3.17;;;;;;;;;;6353211;22;20052;-79
2023/04/04 01:54:15;;;;;;;7.07;3.40;;;;;;;;;;6326004;22;20081;-80
2023/04/04 01:56:42;;;;;;;8.52;3.50;;;;;;;;;;6352928;22;20002;-80
2023/04/04 01:59:08;;;;;;;7.68;3.50;;;;;;;;;;6327426;22;20010;-80
2023/04/04 02:01:34;;;;;;;4.05;3.22;;;;;;;;;;6326696;22;20007;-80
2023/04/04 02:04:01;;;;;;;5.47;3.50;;;;;;;;;;6328479;22;20017;-81
2023/04/04 02:06:28;;;;;;;6.60;3.53;;;;;;;;;;6356633;22;19999;-81
2023/04/04 02:08:56;;;;;;;9.63;3.20;;;;;;;;;;6357246;22;19999;-81
2023/04/04 02:11:22;;;;;;;6.60;3.90;;;;;;;;;;6329314;22;20428;-80
2023/04/04 02:13:49;;;;;;;6.13;3.80;;;;;;;;;;6355525;22;20003;-80
2023/04/04 02:16:15;;;;;;;7.20;3.88;;;;;;;;;;6329666;22;20005;-80
2023/04/04 02:18:41;;;;;;;4.82;3.30;;;;;;;;;;6328915;22;20014;-82
2023/04/04 02:21:08;;;;;;;9.27;3.20;;;;;;;;;;6328671;22;20007;-80
2023/04/04 02:23:34;;;;;;;11.52;4.65;;;;;;;;;;6331343;22;20017;-81
2023/04/04 02:26:00;;;;;;;5.63;3.60;;;;;;;;;;6326306;22;20011;-80
2023/04/04 02:28:28;;;;;;;5.40;3.42;;;;;;;;;;6328497;22;20006;-79
2023/04/04 02:30:54;;;;;;;8.07;3.63;;;;;;;;;;6326493;22;20062;-80
2023/04/04 02:33:21;;;;;;;8.77;4.00;;;;;;;;;;6325044;22;20575;-80
2023/04/04 02:35:47;;;;;;;8.55;4.65;;;;;;;;;;6356028;22;20058;-80
2023/04/04 02:38:13;;;;;;;7.22;4.05;;;;;;;;;;6355199;22;20013;-80
2023/04/04 02:40:40;;;;;;;6.93;4.28;;;;;;;;;;6329055;22;20010;-79
2023/04/04 02:43:07;;;;;;;5.20;3.65;;;;;;;;;;6355483;22;19995;-79
2023/04/04 02:45:33;;;;;;;8.35;4.25;;;;;;;;;;6327109;22;20009;-79
2023/04/04 02:47:59;;;;;;;10.40;4.97;;;;;;;;;;6354891;22;20009;-79
2023/04/04 02:50:25;;;;;;;6.88;4.50;;;;;;;;;;6329147;22;20019;-79
2023/04/04 02:52:53;;;;;;;10.35;4.57;;;;;;;;;;6359311;22;20014;-79
2023/04/04 02:55:19;;;;;;;9.00;3.80;;;;;;;;;;6357328;22;19995;-79
2023/04/04 02:57:51;;;;;;;7.78;3.50;;;;;;;;;;6356155;22;19998;-80
2023/04/04 03:00:17;;;;;;;9.52;4.22;;;;;;;;;;6356618;22;19995;-82
2023/04/04 03:02:44;;;;;;;4.45;3.40;;;;;;;;;;6356389;22;20061;-79
2023/04/04 03:05:11;;;;;;;4.28;3.65;;;;;;;;;;6353568;22;20005;-79
2023/04/04 03:07:37;;;;;;;12.55;4.60;;;;;;;;;;6358340;22;19998;-79
2023/04/04 03:10:03;;;;;;;4.95;3.70;;;;;;;;;;6329554;22;20003;-80
2023/04/04 03:12:30;;;;;;;8.60;3.80;;;;;;;;;;6355126;22;20022;-80
2023/04/04 03:14:56;;;;;;;10.18;3.47;;;;;;;;;;6355159;22;19999;-79
2023/04/04 03:17:22;;;;;;;4.65;3.83;;;;;;;;;;6358080;22;19999;-79
2023/04/04 03:19:48;;;;;;;6.78;3.55;;;;;;;;;;6330331;22;20007;-80
2023/04/04 03:22:14;;;;;;;6.40;3.35;;;;;;;;;;6332683;22;20007;-80
2023/04/04 03:24:41;;;;;;;5.75;4.28;;;;;;;;;;6359669;22;19995;-81
2023/04/04 03:27:07;;;;;;;5.95;3.42;;;;;;;;;;6332595;22;20003;-79
2023/04/04 03:29:33;;;;;;;7.72;3.85;;;;;;;;;;6358217;22;19999;-80
2023/04/04 03:31:59;;;;;;;7.65;3.63;;;;;;;;;;6356855;22;20002;-80
2023/04/04 03:34:26;;;;;;;6.03;3.15;;;;;;;;;;6328637;22;20007;-80
2023/04/04 03:36:52;;;;;;;8.32;4.53;;;;;;;;;;6352146;22;20010;-79
2023/04/04 03:39:19;;;;;;;10.32;3.55;;;;;;;;;;6324267;22;20013;-79
2023/04/04 03:41:45;;;;;;;6.32;3.10;;;;;;;;;;6351478;22;19998;-78
2023/04/04 03:44:11;;;;;;;4.13;2.75;;;;;;;;;;6351332;22;20028;-78
2023/04/04 03:46:37;;;;;;;6.75;3.63;;;;;;;;;;6321705;22;19999;-79
2023/04/04 03:49:03;;;;;;;6.28;3.58;;;;;;;;;;6352124;22;20395;-79
2023/04/04 03:51:29;;;;;;;4.32;3.30;;;;;;;;;;6327490;22;20093;-79
2023/04/04 03:53:55;;;;;;;5.30;3.38;;;;;;;;;;6354373;22;20051;-79
2023/04/04 03:56:21;;;;;;;4.00;3.50;;;;;;;;;;6354264;22;20377;-79
2023/04/04 03:58:48;;;;;;;5.03;3.30;;;;;;;;;;6353806;22;20065;-80
2023/04/04 04:01:14;;;;;;;6.22;3.15;;;;;;;;;;6353603;22;20010;-80
2023/04/04 04:03:40;;;;;;;7.65;3.58;;;;;;;;;;6354298;22;20022;-79
2023/04/04 04:06:07;;;;;;;4.63;2.90;;;;;;;;;;6329523;22;20017;-81
2023/04/04 04:08:33;;;;;;;4.05;2.83;;;;;;;;;;6321949;22;20011;-79
2023/04/04 04:11:06;;;;;;;6.40;3.22;;;;;;;;;;6354807;22;20002;-79
2023/04/04 04:13:33;;;;;;;5.28;3.10;;;;;;;;;;6325677;22;19999;-78
2023/04/04 04:15:59;;;;;;;4.13;2.88;;;;;;;;;;6350083;22;20007;-79
2023/04/04 04:18:26;;;;;;;5.60;3.28;;;;;;;;;;6352054;22;19999;-79
2023/04/04 04:20:57;;;;;;;6.38;3.03;;;;;;;;;;6354854;22;20043;-79
2023/04/04 04:23:24;;;;;;;4.25;3.53;;;;;;;;;;6350711;22;19999;-80
2023/04/04 04:25:50;;;;;;;6.85;3.28;;;;;;;;;;6351930;22;20013;-78
2023/04/04 04:28:16;;;;;;;11.23;3.65;;;;;;;;;;6351595;22;20426;-82
2023/04/04 04:30:43;;;;;;;4.22;3.00;;;;;;;;;;6351909;22;20013;-79
2023/04/04 04:33:09;;;;;;;4.40;2.90;;;;;;;;;;6351207;22;20017;-78
2023/04/04 04:35:41;;;;;;;7.93;3.53;;;;;;;;;;6350560;22;20055;-79
2023/04/04 04:38:07;;;;;;;4.93;3.00;;;;;;;;;;6350751;22;20006;-81
2023/04/04 04:40:34;;;;;;;6.60;3.90;;;;;;;;;;6350675;22;20013;-80
2023/04/04 04:43:00;;;;;;;5.20;3.50;;;;;;;;;;6352485;22;20817;-78
2023/04/04 04:45:26;;;;;;;8.30;4.47;;;;;;;;;;6350151;22;20019;-79
2023/04/04 04:47:52;;;;;;;6.43;5.15;;;;;;;;;;6324628;22;20003;-79
2023/04/04 04:50:18;;;;;;;6.13;4.30;;;;;;;;;;6350670;22;19999;-79
2023/04/04 04:52:45;;;;;;;7.13;4.15;;;;;;;;;;6321151;22;20006;-79
2023/04/04 04:55:11;;;;;;;10.05;4.20;;;;;;;;;;6350474;22;20002;-79
2023/04/04 04:57:37;;;;;;;8.07;4.28;;;;;;;;;;6323425;22;20281;-79
2023/04/04 05:00:04;;;;;;;6.03;4.05;;;;;;;;;;6322618;22;20007;-79
2023/04/04 05:02:30;;;;;;;13.43;5.07;;;;;;;;;;6349593;22;20068;-79
2023/04/04 05:04:56;;;;;;;6.20;3.95;;;;;;;;;;6353556;22;20251;-80
2023/04/04 05:07:22;;;;;;;7.45;5.40;;;;;;;;;;6352215;22;20018;-80
2023/04/04 05:09:50;;;;;;;8.45;4.38;;;;;;;;;;6326138;22;20011;-80
2023/04/04 05:12:16;;;;;;;7.90;4.90;;;;;;;;;;6356158;22;19998;-80
2023/04/04 05:14:43;;;;;;;9.95;4.00;;;;;;;;;;6353699;22;20007;-79
2023/04/04 05:17:09;;;;;;;7.55;4.50;;;;;;;;;;6326490;22;20003;-82
2023/04/04 05:19:35;;;;;;;6.90;4.43;;;;;;;;;;6327040;22;20014;-81
2023/04/04 05:22:02;;;;;;;7.28;5.25;;;;;;;;;;6354843;22;20050;-81
2023/04/04 05:24:28;;;;;;;5.43;4.20;;;;;;;;;;6355363;22;20504;-80
2023/04/04 05:26:54;;;;;;;10.00;5.15;;;;;;;;;;6356380;22;20055;-81
2023/04/04 05:29:20;;;;;;;7.75;4.95;;;;;;;;;;6354831;22;20018;-80
2023/04/04 05:31:46;;;;;;;8.60;4.13;;;;;;;;;;6327216;22;20033;-79
2023/04/04 05:34:12;;;;;;;9.13;4.38;;;;;;;;;;6355313;22;20031;-80
2023/04/04 05:36:39;;;;;;;6.82;3.78;;;;;;;;;;6328167;22;20007;-80
2023/04/04 05:39:05;;;;;;;6.18;4.25;;;;;;;;;;6353635;22;20029;-80
2023/04/04 05:41:31;;;;;;;8.90;4.45;;;;;;;;;;6356372;22;20002;-79
2023/04/04 05:43:59;;;;;;;8.65;4.22;;;;;;;;;;6355100;22;19995;-80
2023/04/04 05:46:25;;;;;;;7.82;4.13;;;;;;;;;;6356042;22;19998;-80
2023/04/04 05:48:51;;;;;;;9.85;4.70;;;;;;;;;;6329183;22;20007;-78
2023/04/04 05:51:17;;;;;;;7.05;4.32;;;;;;;;;;6358043;22;20413;-80
2023/04/04 05:53:44;;;;;;;7.47;4.63;;;;;;;;;;6355423;22;19997;-80
2023/04/04 05:56:11;;;;;;;7.65;4.80;;;;;;;;;;6327222;22;20007;-80
2023/04/04 05:58:37;;;;;;;6.55;4.20;;;;;;;;;;6353159;22;20171;-80
2023/04/04 06:01:07;;;;;;;10.55;5.75;;;;;;;;;;6354079;22;20033;-80
2023/04/04 06:03:34;;;;;;;6.20;4.53;;;;;;;;;;6358253;22;20021;-81
2023/04/04 06:06:03;;;;;;;10.02;4.95;;;;;;;;;;6362497;22;19987;-82
2023/04/04 06:08:29;;;;;;;6.35;4.35;;;;;;;;;;6362375;22;20015;-82
2023/04/04 06:10:55;;;;;;;5.65;4.47;;;;;;;;;;6335483;22;20007;-81
2023/04/04 06:13:21;;;;;;;8.55;4.53;;;;;;;;;;6362967;22;20199;-82
2023/04/04 06:15:47;;;;;;;10.93;5.18;;;;;;;;;;6331342;22;20007;-81
2023/04/04 06:18:15;;;;;;;9.05;4.50;;;;;;;;;;6326984;22;20013;-80
2023/04/04 06:20:41;;;;;;;7.53;4.40;;;;;;;;;;6354695;22;20025;-81
2023/04/04 06:23:08;;;;;;;7.18;5.18;;;;;;;;;;6356764;22;20010;-80
2023/04/04 06:25:35;;;;;;;6.88;5.05;;;;;;;;;;6327169;22;19999;-79
2023/04/04 06:28:02;;;;;;;7.97;5.95;;;;;;;;;;6328970;22;19999;-80
2023/04/04 06:30:28;;;;;;;12.73;5.25;;;;;;;;;;6355684;22;20021;-80
2023/04/04 06:32:54;;;;;;;8.63;5.15;;;;;;;;;;6328757;22;19999;-81
2023/04/04 06:35:22;;;;;;;13.70;5.20;;;;;;;;;;6329949;22;20049;-81
2023/04/04 06:37:54;;;;;;;7.78;5.63;;;;;;;;;;6330681;22;20093;-83
2023/04/04 06:40:21;;;;;;;9.70;5.05;;;;;;;;;;6357581;22;20043;-81
2023/04/04 06:42:57;;;;;;;12.52;5.85;;;;;;;;;;6332283;22;20033;-80
2023/04/04 06:45:24;;;;;;;7.95;4.75;;;;;;;;;;6330117;22;20398;-81
2023/04/04 06:47:52;;;;;;;8.52;4.65;;;;;;;;;;6355545;22;20013;-79
2023/04/04 06:50:18;;;;;;;7.35;4.70;;;;;;;;;;6354248;22;20006;-80
2023/04/04 06:52:44;;;;;;;7.07;4.70;;;;;;;;;;6354383;22;19999;-80
2023/04/04 06:55:12;;;;;;;7.57;5.30;;;;;;;;;;6355345;22;20007;-79
2023/04/04 06:57:38;;;;;;;9.18;5.32;;;;;;;;;;6356459;22;20007;-81
2023/04/04 07:00:04;;;;;;;8.52;4.90;;;;;;;;;;6355417;22;20009;-81
2023/04/04 07:02:31;;;;;;;8.00;5.43;;;;;;;;;;6330217;22;20007;-81
2023/04/04 07:04:57;;;;;;;10.20;5.28;;;;;;;;;;6358086;22;20021;-80
2023/04/04 07:07:24;;;;;;;5.68;4.72;;;;;;;;;;6356600;22;20014;-81
2023/04/04 07:09:50;;;;;;;10.40;4.88;;;;;;;;;;6329366;22;20011;-81
2023/04/04 07:12:16;;;;;;;9.95;4.88;;;;;;;;;;6361884;22;20010;-81
2023/04/04 07:14:42;;;;;;;8.43;5.25;;;;;;;;;;6336556;22;20345;-82
2023/04/04 07:17:08;;;;;;;10.02;5.60;;;;;;;;;;6337257;22;19991;-82
2023/04/04 07:19:34;;;;;;;8.50;4.30;;;;;;;;;;6365833;22;20048;-81
2023/04/04 07:22:01;;;;;;;9.50;4.90;;;;;;;;;;6360864;22;20010;-80
2023/04/04 07:24:27;;;;;;;8.35;4.78;;;;;;;;;;6356372;22;20010;-80
2023/04/04 07:26:53;;;;;;;6.93;4.35;;;;;;;;;;6355959;22;20105;-79
2023/04/04 07:29:20;;;;;;;9.73;5.45;;;;;;;;;;6354966;22;20052;-81
2023/04/04 07:31:46;;;;;;;7.13;4.25;;;;;;;;;;6356119;22;20014;-80
2023/04/04 07:34:13;;;;;;;7.68;5.25;;;;;;;;;;6357815;22;20003;-82
2023/04/04 07:36:39;;;;;;;9.88;4.60;;;;;;;;;;6329951;22;20006;-81
2023/04/04 07:39:05;;;;;;;8.18;5.05;;;;;;;;;;6327838;22;20013;-80
2023/04/04 07:41:32;;;;;;;13.43;4.93;;;;;;;;;;6356751;22;20011;-80
2023/04/04 07:43:59;;;;;;;5.40;4.25;;;;;;;;;;6330465;22;20003;-82
2023/04/04 07:46:26;;;;;;;8.02;3.92;;;;;;;;;;6329255;22;20049;-80
2023/04/04 07:48:52;;;;;;;10.10;4.93;;;;;;;;;;6358995;22;20068;-81
2023/04/04 07:51:27;;;;;;;11.85;5.25;;;;;;;;;;6356687;22;20010;-80
2023/04/04 07:53:53;;;;;;;7.50;4.57;;;;;;;;;;6359187;22;20054;-81
2023/04/04 07:56:20;;;;;;;5.72;5.10;;;;;;;;;;6355927;22;20082;-80
2023/04/04 07:58:46;;;;;;;8.75;4.63;;;;;;;;;;6329803;22;20408;-81
2023/04/04 08:01:12;;;;;;;10.85;5.28;;;;;;;;;;6356299;22;20023;-81
2023/04/04 08:03:39;;;;;;;9.43;5.20;;;;;;;;;;6356941;22;19999;-80
2023/04/04 08:06:05;;;;;;;10.35;5.50;;;;;;;;;;6353167;22;20006;-81
2023/04/04 08:08:31;;;;;;;8.15;5.65;;;;;;;;;;6327880;22;20006;-80
2023/04/04 08:10:57;;;;;;;9.10;4.13;;;;;;;;;;6327195;22;20040;-81
2023/04/04 08:13:24;;;;;;;7.40;5.47;;;;;;;;;;6355370;22;20003;-81
2023/04/04 08:15:50;;;;;;;8.68;4.75;;;;;;;;;;6356742;22;20058;-82
2023/04/04 08:18:17;;;;;;;9.43;4.82;;;;;;;;;;6331216;22;20010;-80
2023/04/04 08:20:43;;;;;;;9.68;4.80;;;;;;;;;;6330017;22;20073;-81
2023/04/04 08:23:11;;;;;;;6.88;4.30;;;;;;;;;;6327200;22;19998;-81
2023/04/04 08:25:38;;;;;;;8.23;4.25;;;;;;;;;;6359728;22;19999;-81
2023/04/04 08:28:04;;;;;;;8.90;4.40;;;;;;;;;;6355979;22;20001;-80
2023/04/04 08:30:31;;;;;;;10.75;4.38;;;;;;;;;;6329948;22;20014;-81
2023/04/04 08:32:57;;;;;;;7.22;4.57;;;;;;;;;;6354607;22;20020;-81
2023/04/04 08:35:23;;;;;;;10.23;4.78;;;;;;;;;;6363334;22;20021;-80
2023/04/04 08:37:49;;;;;;;8.27;4.65;;;;;;;;;;6359972;22;20003;-83
2023/04/04 08:40:19;;;;;;;9.07;4.43;;;;;;;;;;6362984;22;20002;-81
2023/04/04 08:42:46;;;;;;;10.45;4.90;;;;;;;;;;6330296;22;20002;-81
2023/04/04 08:45:12;;;;;;;11.80;5.05;;;;;;;;;;6357697;22;19995;-80
2023/04/04 08:47:39;;;;;;;6.18;3.83;;;;;;;;;;6334662;22;19990;-82
2023/04/04 08:50:06;;;;;;;10.93;4.72;;;;;;;;;;6336203;22;20437;-80
2023/04/04 08:52:35;;;;;;;8.40;4.45;;;;;;;;;;6363303;22;20046;-81
2023/04/04 08:55:04;;;;;;;7.35;5.05;;;;;;;;;;6361147;22;20030;-81
2023/04/04 08:57:30;;;;;;;7.13;4.70;;;;;;;;;;6330542;22;20013;-80
2023/04/04 08:59:57;;;;;;;9.95;5.20;;;;;;;;;;6330072;22;20006;-81
2023/04/04 09:02:26;;;;;;;6.88;4.88;;;;;;;;;;6357260;22;20010;-81
2023/04/04 09:04:53;;;;;;;7.63;4.38;;;;;;;;;;6328612;22;20027;-80
2023/04/04 09:07:20;;;;;;;11.35;4.45;;;;;;;;;;6356497;22;20402;-82
2023/04/04 09:09:46;;;;;;;9.35;4.38;;;;;;;;;;6354557;22;20311;-80
2023/04/04 09:12:16;;;;;;;8.50;4.53;;;;;;;;;;6355363;22;20003;-83
2023/04/04 09:14:43;;;;;;;8.43;5.20;;;;;;;;;;6328702;22;20074;-81
2023/04/04 09:17:09;;;;;;;7.03;3.95;;;;;;;;;;6355773;22;20054;-80
2023/04/04 09:19:36;;;;;;;9.50;4.13;;;;;;;;;;6326302;22;20032;-80
2023/04/04 09:22:06;;;;;;;9.27;4.13;;;;;;;;;;6354312;22;20003;-81
2023/04/04 09:24:42;;;;;;;9.60;4.72;;;;;;;;;;6356041;22;20014;-81
2023/04/04 09:27:12;;;;;;;9.25;4.22;;;;;;;;;;6353568;22;20006;-81
2023/04/04 09:29:39;;;;;;;8.00;4.10;;;;;;;;;;6354840;22;20006;-79
2023/04/04 09:32:09;;;;;;;6.45;3.75;;;;;;;;;;6325267;22;20003;-81
2023/04/04 09:34:36;;;;;;;7.82;3.67;;;;;;;;;;6352803;22;20011;-80
2023/04/04 09:37:04;;;;;;;7.70;3.80;;;;;;;;;;6354388;22;20026;-82
2023/04/04 09:39:31;;;;;;;6.38;3.72;;;;;;;;;;6356980;22;20115;-80
2023/04/04 09:41:57;;;;;;;6.53;3.40;;;;;;;;;;6355612;22;19999;-81
2023/04/04 09:44:24;;;;;;;8.18;4.40;;;;;;;;;;6354722;22;20001;-80
2023/04/04 09:47:05;;;;;;;8.70;4.25;;;;;;;;;;6354090;22;20026;-80
2023/04/04 09:49:31;;;;;;;10.48;4.03;;;;;;;;;;6326742;22;20002;-81
2023/04/04 09:51:58;;;;;;;12.02;4.35;;;;;;;;;;6358762;22;20358;-79
2023/04/04 09:54:24;;;;;;;7.50;3.70;;;;;;;;;;6357858;22;20003;-81
2023/04/04 09:56:51;;;;;;;8.48;3.95;;;;;;;;;;6355719;22;20049;-79
2023/04/04 09:59:17;;;;;;;8.32;4.13;;;;;;;;;;6355427;22;19998;-80
2023/04/04 10:01:45;;;;;;;6.68;3.60;;;;;;;;;;6356822;22;20014;-79
2023/04/04 10:04:11;;;;;;;5.03;3.58;;;;;;;;;;6355356;22;19999;-80
2023/04/04 10:06:37;;;;;;;6.50;3.65;;;;;;;;;;6356532;22;20026;-80
2023/04/04 10:09:04;;;;;;;8.10;4.32;;;;;;;;;;6356727;22;20003;-81
2023/04/04 10:11:32;;;;;;;9.52;4.30;;;;;;;;;;6328957;22;20034;-80
2023/04/04 10:13:58;;;;;;;5.30;4.10;;;;;;;;;;6359806;22;19999;-81
2023/04/04 10:16:25;;;;;;;6.97;3.95;;;;;;;;;;6358161;22;20018;-81
2023/04/04 10:18:52;;;;;;;9.18;3.60;;;;;;;;;;6357856;22;20010;-82
2023/04/04 10:21:18;;;;;;;5.18;3.60;;;;;;;;;;6328803;22;20007;-81
2023/04/04 10:23:51;;;;;;;8.15;4.30;;;;;;;;;;6353222;22;20040;-81
2023/04/04 10:26:17;;;;;;;10.70;4.13;;;;;;;;;;6355330;22;20019;-81
2023/04/04 10:28:44;;;;;;;9.00;4.53;;;;;;;;;;6357228;22;19999;-80
2023/04/04 10:31:22;;;;;;;9.18;4.65;;;;;;;;;;6330624;22;20026;-81
2023/04/04 10:33:51;;;;;;;8.48;4.13;;;;;;;;;;6358297;22;20002;-80
2023/04/04 10:36:21;;;;;;;5.20;3.97;;;;;;;;;;6357497;22;20425;-80
2023/04/04 10:38:56;;;;;;;12.60;4.75;;;;;;;;;;6358779;22;19987;-81
2023/04/04 10:41:22;;;;;;;9.77;3.35;;;;;;;;;;6326072;22;20007;-80
2023/04/04 10:43:50;;;;;;;10.30;4.30;;;;;;;;;;6355365;22;20003;-81
2023/04/04 10:46:18;;;;;;;7.28;3.65;;;;;;;;;;6354606;22;19999;-80
2023/04/04 10:48:45;;;;;;;5.68;3.58;;;;;;;;;;6354620;22;19995;-80
2023/04/04 10:51:11;;;;;;;10.38;4.25;;;;;;;;;;6357150;22;20010;-80
2023/04/04 10:53:38;;;;;;;11.77;4.80;;;;;;;;;;6326456;22;20007;-81
2023/04/04 10:56:05;;;;;;;22.92;4.45;;;;;;;;;;6326059;22;20006;-81
2023/04/04 10:58:31;;;;;;;5.90;3.53;;;;;;;;;;6353933;22;20010;-81
2023/04/04 11:00:58;;;;;;;7.72;4.53;;;;;;;;;;6328790;22;20050;-81
2023/04/04 11:03:25;;;;;;;8.20;3.80;;;;;;;;;;6326862;22;20063;-80
2023/04/04 11:05:54;;;;;;;13.23;4.85;;;;;;;;;;6354596;22;20006;-79
2023/04/04 11:08:24;;;;;;;8.18;4.20;;;;;;;;;;6329544;22;20019;-80
2023/04/04 11:10:51;;;;;;;8.25;3.53;;;;;;;;;;6355087;22;20002;-80
2023/04/04 11:13:21;;;;;;;9.50;4.80;;;;;;;;;;6356266;22;20003;-82
2023/04/04 11:15:58;;;;;;;8.45;4.32;;;;;;;;;;6356547;22;19999;-82
2023/04/04 11:18:44;;;;;;;9.82;3.63;;;;;;;;;;6330271;22;19999;-81
2023/04/04 11:21:18;;;;;;;8.30;3.88;;;;;;;;;;6355603;22;20003;-82
2023/04/04 11:23:47;;;;;;;9.37;4.60;;;;;;;;;;6354884;22;19998;-80
2023/04/04 11:26:16;;;;;;;6.47;4.30;;;;;;;;;;6354148;22;19999;-81
2023/04/04 11:28:44;;;;;;;7.65;3.88;;;;;;;;;;6356517;22;20021;-82
2023/04/04 11:31:19;;;;;;;9.73;4.20;;;;;;;;;;6329484;22;20002;-81
2023/04/04 11:34:04;;;;;;;8.68;3.75;;;;;;;;;;6356085;22;19999;-81
2023/04/04 11:36:40;;;;;;;12.88;4.93;;;;;;;;;;6327737;22;20108;-83
2023/04/04 11:39:28;;;;;;;9.65;4.25;;;;;;;;;;6328672;22;20314;-81
2023/04/04 11:41:58;;;;;;;8.05;4.07;;;;;;;;;;6326812;22;20003;-81
2023/04/04 11:44:28;;;;;;;9.82;3.97;;;;;;;;;;6355794;22;20435;-81
2023/04/04 11:47:16;;;;;;;8.50;3.67;;;;;;;;;;6358154;22;19994;-82
2023/04/04 11:49:43;;;;;;;5.57;3.55;;;;;;;;;;6361478;22;20003;-82
2023/04/04 11:52:10;;;;;;;6.75;4.13;;;;;;;;;;6335877;22;20013;-83
2023/04/04 11:54:37;;;;;;;7.40;3.40;;;;;;;;;;6365497;22;20002;-84
2023/04/04 11:57:07;;;;;;;8.50;3.75;;;;;;;;;;6364422;22;20003;-82
2023/04/04 11:59:33;;;;;;;10.38;4.47;;;;;;;;;;6334879;22;20006;-83
2023/04/04 12:02:01;;;;;;;10.02;3.60;;;;;;;;;;6335061;22;20014;-82
2023/04/04 12:04:28;;;;;;;6.63;3.83;;;;;;;;;;6335741;22;20010;-84
2023/04/04 12:06:55;;;;;;;9.73;4.43;;;;;;;;;;6362593;22;20061;-84
2023/04/04 12:09:25;;;;;;;7.82;3.40;;;;;;;;;;6339202;22;19991;-84
2023/04/04 12:11:52;;;;;;;14.85;5.32;;;;;;;;;;6365933;22;20028;-82
2023/04/04 12:14:22;;;;;;;8.50;3.70;;;;;;;;;;6364939;22;20021;-84
2023/04/04 12:16:49;;;;;;;5.07;3.05;;;;;;;;;;6364244;22;20032;-83
2023/04/04 12:19:15;;;;;;;6.18;3.53;;;;;;;;;;6359549;22;20010;-82
2023/04/04 12:21:41;;;;;;;8.82;3.80;;;;;;;;;;6355840;22;20037;-81
2023/04/04 12:24:08;;;;;;;5.35;3.92;;;;;;;;;;6358346;22;19991;-82
2023/04/04 12:26:39;;;;;;;7.75;3.83;;;;;;;;;;6330541;22;20007;-82
2023/04/04 12:29:06;;;;;;;10.35;4.82;;;;;;;;;;6349554;22;20041;-82
2023/04/04 12:31:33;;;;;;;9.07;4.28;;;;;;;;;;6318223;22;20344;-84
2023/04/04 12:34:00;;;;;;;5.03;3.35;;;;;;;;;;6319286;22;20147;-88
2023/04/04 12:36:26;;;;;;;7.13;4.25;;;;;;;;;;6319423;22;20010;-88
2023/04/04 12:39:00;;;;;;;8.93;3.55;;;;;;;;;;6345992;22;20548;-80
2023/04/04 12:41:27;;;;;;;11.90;4.38;;;;;;;;;;6316320;22;20045;-84
2023/04/04 12:44:03;;;;;;;13.60;4.43;;;;;;;;;;6344453;22;20424;-84
2023/04/04 12:46:39;;;;;;;5.28;4.32;;;;;;;;;;6339310;22;20388;-83
2023/04/04 12:49:11;;;;;;;7.82;4.07;;;;;;;;;;6316197;22;19998;-83
2023/04/04 12:51:37;;;;;;;7.43;3.60;;;;;;;;;;6314945;22;20003;-78
2023/04/04 12:54:05;;;;;;;7.60;3.85;;;;;;;;;;6314021;22;20009;-78
2023/04/04 12:56:35;;;;;;;6.10;4.75;;;;;;;;;;6344308;22;20070;-87
2023/04/04 12:59:02;;;;;;;7.07;3.50;;;;;;;;;;6341720;22;20067;-86
2023/04/04 13:01:32;;;;;;;10.70;4.47;;;;;;;;;;6316515;22;20007;-87
2023/04/04 13:04:03;;;;;;;6.10;3.78;;;;;;;;;;6342069;22;19999;-87
2023/04/04 13:06:30;;;;;;;7.00;4.28;;;;;;;;;;6344266;22;19998;-87
2023/04/04 13:08:57;;;;;;;6.28;3.88;;;;;;;;;;6343433;22;20017;-84
2023/04/04 13:11:24;;;;;;;9.35;4.63;;;;;;;;;;6343477;22;20024;-86
2023/04/04 13:13:59;;;;;;;8.32;4.50;;;;;;;;;;6315794;22;20026;-87
2023/04/04 13:16:31;;;;;;;8.75;3.80;;;;;;;;;;6315041;22;20010;-85
2023/04/04 13:18:57;;;;;;;5.97;3.70;;;;;;;;;;6315797;22;20003;-87
2023/04/04 13:21:23;;;;;;;6.35;3.55;;;;;;;;;;6342605;22;20052;-83
2023/04/04 13:23:49;;;;;;;9.93;3.55;;;;;;;;;;6343060;22;20044;-85
2023/04/04 13:26:15;;;;;;;6.53;3.20;;;;;;;;;;6314559;22;20561;-82
2023/04/04 13:28:42;;;;;;;9.73;4.28;;;;;;;;;;6310652;22;20063;-83
2023/04/04 13:31:09;;;;;;;7.28;3.45;;;;;;;;;;6342830;22;20416;-80
2023/04/04 13:33:36;;;;;;;6.30;3.30;;;;;;;;;;6339085;22;20002;-80
2023/04/04 13:36:03;;;;;;;19.42;5.25;;;;;;;;;;6314489;22;20006;-86
2023/04/04 13:38:29;;;;;;;9.57;4.55;;;;;;;;;;6313215;22;20006;-86
2023/04/04 13:40:57;;;;;;;6.22;3.83;;;;;;;;;;6342715;22;20011;-79
2023/04/04 13:43:23;;;;;;;9.55;3.92;;;;;;;;;;6342469;22;20355;-86
2023/04/04 13:45:49;;;;;;;8.95;4.22;;;;;;;;;;6314830;22;19999;-86
2023/04/04 13:48:15;;;;;;;5.15;3.50;;;;;;;;;;6316267;22;20006;-82
2023/04/04 13:50:43;;;;;;;11.35;5.55;;;;;;;;;;6315431;22;20003;-85
2023/04/04 13:53:09;;;;;;;8.13;3.20;;;;;;;;;;6314229;22;20002;-86
2023/04/04 13:55:36;;;;;;;11.30;4.35;;;;;;;;;;6341386;22;20328;-80
2023/04/04 13:58:02;;;;;;;9.27;4.43;;;;;;;;;;6341415;22;20424;-85
2023/04/04 14:00:28;;;;;;;13.10;4.68;;;;;;;;;;6314989;22;20042;-88
2023/04/04 14:02:55;;;;;;;6.88;3.30;;;;;;;;;;6343362;22;20035;-83
2023/04/04 14:05:21;;;;;;;10.73;3.50;;;;;;;;;;6343698;22;20002;-86
2023/04/04 14:07:48;;;;;;;3.75;2.80;;;;;;;;;;6316263;22;19999;-85
2023/04/04 14:10:15;;;;;;;6.45;3.33;;;;;;;;;;6345564;22;19991;-85
2023/04/04 14:12:41;;;;;;;18.60;6.80;;;;;;;;;;6315032;22;20015;-86
2023/04/04 14:15:08;;;;;;;8.25;3.55;;;;;;;;;;6344572;22;19998;-86
2023/04/04 14:17:35;;;;;;;6.70;4.13;;;;;;;;;;6315562;22;20003;-84
2023/04/04 14:20:01;;;;;;;8.55;3.65;;;;;;;;;;6345207;22;20041;-86
2023/04/04 14:22:27;;;;;;;9.43;3.80;;;;;;;;;;6344275;22;20069;-83
2023/04/04 14:24:54;;;;;;;8.32;3.67;;;;;;;;;;6343759;22;19999;-85
2023/04/04 14:27:20;;;;;;;4.95;3.28;;;;;;;;;;6343411;22;20023;-86
2023/04/04 14:29:47;;;;;;;6.63;2.80;;;;;;;;;;6342903;22;20030;-82
2023/04/04 14:32:13;;;;;;;7.80;4.13;;;;;;;;;;6343077;22;20002;-84
2023/04/04 14:34:39;;;;;;;10.55;3.35;;;;;;;;;;6341801;22;20002;-86
2023/04/04 14:37:06;;;;;;;7.80;3.20;;;;;;;;;;6315474;22;20006;-82
2023/04/04 14:39:32;;;;;;;6.45;3.05;;;;;;;;;;6344599;22;20002;-83
2023/04/04 14:41:58;;;;;;;5.20;2.80;;;;;;;;;;6342179;22;20425;-80